createdAt,value
2018-03-04T00:00:01.592Z,23.3
2018-03-04T00:00:53.230Z,23.3
2018-03-04T00:01:42.616Z,23.3
2018-03-04T00:02:32.596Z,23.3
2018-03-04T00:03:22.914Z,23.1
2018-03-04T00:04:12.061Z,22.9
2018-03-04T00:05:03.241Z,22.9
2018-03-04T00:05:53.097Z,22.9
2018-03-04T00:06:43.129Z,22.9
2018-03-04T00:07:32.332Z,22.9
2018-03-04T00:08:23.119Z,22.9
2018-03-04T00:09:14.057Z,22.9
2018-03-04T00:10:03.396Z,22.9
2018-03-04T00:10:53.912Z,23
2018-03-04T00:11:42.350Z,23.1
2018-03-04T00:12:33.161Z,23.2
2018-03-04T00:13:23.695Z,23.3
2018-03-04T00:14:13.159Z,23.4
2018-03-04T00:15:02.962Z,23.6
2018-03-04T00:15:52.820Z,23.7
2018-03-04T00:16:43.817Z,23.9
2018-03-04T00:17:33.547Z,24.1
2018-03-04T00:18:23.712Z,24.2
2018-03-04T00:19:14.007Z,24.4
2018-03-04T00:20:03.377Z,24.5
2018-03-04T00:20:53.955Z,24.6
2018-03-04T00:21:43.334Z,24.8
2018-03-04T00:22:33.892Z,24.8
2018-03-04T00:23:23.164Z,24.9
2018-03-04T00:24:13.943Z,25.1
2018-03-04T00:25:04.074Z,25.1
2018-03-04T00:25:54.049Z,25.3
2018-03-04T00:26:43.587Z,25.3
2018-03-04T00:27:34.403Z,25.3
2018-03-04T00:28:24.352Z,25.4
2018-03-04T00:29:15.329Z,25.5
2018-03-04T00:30:04.616Z,25.6
2018-03-04T00:30:53.363Z,25.6
2018-03-04T00:31:44.329Z,25.6
2018-03-04T00:32:34.658Z,25.8
2018-03-04T00:33:23.953Z,25.8
2018-03-04T00:34:14.495Z,25.8
2018-03-04T00:35:04.919Z,25.9
2018-03-04T00:35:55.079Z,25.9
2018-03-04T00:36:45.179Z,25.9
2018-03-04T00:37:34.324Z,26
2018-03-04T00:38:24.724Z,26.1
2018-03-04T00:39:14.693Z,26.1
2018-03-04T00:40:03.925Z,26.1
2018-03-04T00:40:56.049Z,26.1
2018-03-04T00:41:44.537Z,26.2
2018-03-04T00:42:35.081Z,26.1
2018-03-04T00:43:26.116Z,26.1
2018-03-04T00:44:15.206Z,26
2018-03-04T00:45:04.697Z,25.9
2018-03-04T00:45:55.025Z,25.9
2018-03-04T00:46:44.998Z,25.9
2018-03-04T00:47:36.600Z,25.9
2018-03-04T00:48:25.130Z,25.9
2018-03-04T00:49:14.935Z,25.9
2018-03-04T00:50:05.189Z,25.9
2018-03-04T00:50:56.535Z,25.4
2018-03-04T00:51:47.192Z,25.3
2018-03-04T00:52:36.353Z,25.2
2018-03-04T00:53:27.563Z,25.1
2018-03-04T00:54:16.100Z,25
2018-03-04T00:55:05.249Z,24.9
2018-03-04T00:55:57.035Z,24.9
2018-03-04T00:56:47.110Z,24.9
2018-03-04T00:57:35.639Z,24.9
2018-03-04T00:58:27.565Z,24.9
2018-03-04T00:59:17.318Z,24.8
2018-03-04T01:00:07.042Z,24.9
2018-03-04T01:00:56.442Z,24.6
2018-03-04T01:01:47.007Z,24.4
2018-03-04T01:02:36.744Z,24.4
2018-03-04T01:03:27.311Z,24.3
2018-03-04T01:04:16.319Z,24.3
2018-03-04T01:05:07.277Z,24.3
2018-03-04T01:05:56.497Z,24.2
2018-03-04T01:06:46.551Z,24.1
2018-03-04T01:07:36.795Z,24.1
2018-03-04T01:08:27.297Z,24
2018-03-04T01:09:16.921Z,24
2018-03-04T01:10:06.827Z,24
2018-03-04T01:10:57.310Z,24
2018-03-04T01:11:47.441Z,24
2018-03-04T01:12:37.266Z,24
2018-03-04T01:13:27.438Z,24.1
2018-03-04T01:14:16.706Z,24.1
2018-03-04T01:15:07.662Z,23.9
2018-03-04T01:15:57.295Z,24
2018-03-04T01:16:47.809Z,24
2018-03-04T01:17:37.949Z,24.1
2018-03-04T01:18:27.305Z,24.1
2018-03-04T01:19:18.038Z,24.2
2018-03-04T01:20:08.183Z,24.3
2018-03-04T01:20:58.069Z,24.4
2018-03-04T01:21:47.642Z,24.4
2018-03-04T01:22:38.486Z,24.6
2018-03-04T01:23:28.556Z,24.5
2018-03-04T01:24:18.242Z,24.1
2018-03-04T01:25:08.015Z,24.1
2018-03-04T01:25:58.502Z,24.1
2018-03-04T01:26:48.995Z,24.1
2018-03-04T01:27:38.227Z,24
2018-03-04T01:28:28.399Z,23.9
2018-03-04T01:29:17.498Z,23.9
2018-03-04T01:30:09.446Z,23.9
2018-03-04T01:30:58.493Z,23.9
2018-03-04T01:31:48.729Z,23.9
2018-03-04T01:32:38.770Z,23.8
2018-03-04T01:33:28.818Z,23.7
2018-03-04T01:34:19.308Z,23.8
2018-03-04T01:35:09.030Z,23.8
2018-03-04T01:35:58.735Z,23.7
2018-03-04T01:36:49.112Z,23.8
2018-03-04T01:37:39.095Z,23.8
2018-03-04T01:38:28.981Z,23.8
2018-03-04T01:39:17.984Z,23.7
2018-03-04T01:40:09.198Z,23.6
2018-03-04T01:40:59.533Z,23.7
2018-03-04T01:41:50.310Z,23.8
2018-03-04T01:42:38.140Z,23.9
2018-03-04T01:43:28.854Z,24
2018-03-04T01:44:20.086Z,24.1
2018-03-04T01:45:09.232Z,24.2
2018-03-04T01:46:00.291Z,24.3
2018-03-04T01:46:49.904Z,24.3
2018-03-04T01:47:40.772Z,24.4
2018-03-04T01:48:30.529Z,24.3
2018-03-04T01:49:19.441Z,24
2018-03-04T01:50:09.235Z,23.9
2018-03-04T01:50:59.256Z,23.9
2018-03-04T01:51:50.179Z,23.8
2018-03-04T01:52:39.779Z,23.8
2018-03-04T01:53:31.175Z,23.8
2018-03-04T01:54:20.018Z,23.8
2018-03-04T01:55:11.024Z,23.8
2018-03-04T01:55:59.846Z,23.8
2018-03-04T01:56:50.301Z,23.6
2018-03-04T01:57:40.258Z,23.6
2018-03-04T01:58:30.831Z,23.6
2018-03-04T01:59:21.246Z,23.6
2018-03-04T02:00:09.697Z,23.6
2018-03-04T02:01:00.478Z,23.6
2018-03-04T02:01:51.085Z,23.6
2018-03-04T02:02:41.453Z,23.6
2018-03-04T02:03:31.506Z,23.5
2018-03-04T02:04:21.646Z,23.5
2018-03-04T02:05:11.044Z,23.5
2018-03-04T02:06:02.242Z,23.6
2018-03-04T02:06:49.756Z,23.7
2018-03-04T02:07:41.462Z,23.8
2018-03-04T02:08:31.691Z,23.9
2018-03-04T02:09:21.026Z,24
2018-03-04T02:10:11.719Z,24.1
2018-03-04T02:11:01.988Z,24.2
2018-03-04T02:11:51.621Z,24.3
2018-03-04T02:12:40.808Z,23.9
2018-03-04T02:13:30.866Z,23.8
2018-03-04T02:14:21.788Z,23.8
2018-03-04T02:15:11.017Z,23.7
2018-03-04T02:16:01.854Z,23.7
2018-03-04T02:16:51.765Z,23.6
2018-03-04T02:17:42.056Z,23.6
2018-03-04T02:18:31.428Z,23.6
2018-03-04T02:19:21.827Z,23.6
2018-03-04T02:20:11.834Z,23.6
2018-03-04T02:21:02.283Z,23.4
2018-03-04T02:21:52.069Z,23.4
2018-03-04T02:22:42.415Z,23.4
2018-03-04T02:23:31.380Z,23.4
2018-03-04T02:24:22.923Z,23.4
2018-03-04T02:25:12.712Z,23.4
2018-03-04T02:26:02.415Z,23.4
2018-03-04T02:26:52.687Z,23.4
2018-03-04T02:27:41.570Z,23.4
2018-03-04T02:28:33.570Z,23.4
2018-03-04T02:29:21.991Z,23.6
2018-03-04T02:30:13.954Z,23.6
2018-03-04T02:31:03.142Z,23.6
2018-03-04T02:31:53.136Z,23.6
2018-03-04T02:32:42.336Z,23.6
2018-03-04T02:33:32.688Z,23.7
2018-03-04T02:34:23.234Z,23.8
2018-03-04T02:35:13.177Z,23.8
2018-03-04T02:36:03.014Z,23.9
2018-03-04T02:36:52.843Z,24
2018-03-04T02:37:44.138Z,24.1
2018-03-04T02:38:32.754Z,24.2
2018-03-04T02:39:22.603Z,24.3
2018-03-04T02:40:13.650Z,24.3
2018-03-04T02:41:03.518Z,23.9
2018-03-04T02:41:54.261Z,23.8
2018-03-04T02:42:43.581Z,23.8
2018-03-04T02:43:33.944Z,23.7
2018-03-04T02:44:24.221Z,23.6
2018-03-04T02:45:12.650Z,23.6
2018-03-04T02:46:03.684Z,23.6
2018-03-04T02:46:55.223Z,23.6
2018-03-04T02:47:44.141Z,23.6
2018-03-04T02:48:34.167Z,23.6
2018-03-04T02:49:24.782Z,23.4
2018-03-04T02:50:13.514Z,23.3
2018-03-04T02:51:04.626Z,23.3
2018-03-04T02:51:55.243Z,23.3
2018-03-04T02:52:43.259Z,23.3
2018-03-04T02:53:34.289Z,23.3
2018-03-04T02:54:24.136Z,23.4
2018-03-04T02:55:13.913Z,23.4
2018-03-04T02:56:04.243Z,23.4
2018-03-04T02:56:54.981Z,23.3
2018-03-04T02:57:44.163Z,23.3
2018-03-04T02:58:34.775Z,23.4
2018-03-04T02:59:26.367Z,23.4
2018-03-04T03:00:15.698Z,23.5
2018-03-04T03:01:05.602Z,23.6
2018-03-04T03:01:54.517Z,23.7
2018-03-04T03:02:44.935Z,23.8
2018-03-04T03:03:35.703Z,23.9
2018-03-04T03:04:25.845Z,23.9
2018-03-04T03:05:15.311Z,23.9
2018-03-04T03:06:05.357Z,23.6
2018-03-04T03:06:55.593Z,23.6
2018-03-04T03:07:45.814Z,23.5
2018-03-04T03:08:35.227Z,23.5
2018-03-04T03:09:26.583Z,23.4
2018-03-04T03:10:15.997Z,23.4
2018-03-04T03:11:06.012Z,23.4
2018-03-04T03:11:55.275Z,23.4
2018-03-04T03:12:45.487Z,23.4
2018-03-04T03:13:35.997Z,23.2
2018-03-04T03:14:26.277Z,23.2
2018-03-04T03:15:16.018Z,23.2
2018-03-04T03:16:06.592Z,23.2
2018-03-04T03:16:56.874Z,23.2
2018-03-04T03:17:46.727Z,23.2
2018-03-04T03:18:36.624Z,23.2
2018-03-04T03:19:25.810Z,23.2
2018-03-04T03:20:16.181Z,23.2
2018-03-04T03:21:06.752Z,23.1
2018-03-04T03:21:57.129Z,23.1
2018-03-04T03:22:46.071Z,23.3
2018-03-04T03:23:36.158Z,23.3
2018-03-04T03:24:27.587Z,23.4
2018-03-04T03:25:16.171Z,23.5
2018-03-04T03:26:05.513Z,23.6
2018-03-04T03:26:56.812Z,23.7
2018-03-04T03:27:47.134Z,23.8
2018-03-04T03:28:37.172Z,23.9
2018-03-04T03:29:27.289Z,23.7
2018-03-04T03:30:17.393Z,23.5
2018-03-04T03:31:06.896Z,23.5
2018-03-04T03:31:57.431Z,23.4
2018-03-04T03:32:48.040Z,23.4
2018-03-04T03:33:37.561Z,23.4
2018-03-04T03:34:26.625Z,23.3
2018-03-04T03:35:17.283Z,23.3
2018-03-04T03:36:07.263Z,23.3
2018-03-04T03:36:57.311Z,23.3
2018-03-04T03:37:47.309Z,23.1
2018-03-04T03:38:38.271Z,23.1
2018-03-04T03:39:27.984Z,23.1
2018-03-04T03:40:18.110Z,23.1
2018-03-04T03:41:08.063Z,23.1
2018-03-04T03:41:57.941Z,23.1
2018-03-04T03:42:47.665Z,23.1
2018-03-04T03:43:38.827Z,23.1
2018-03-04T03:44:28.220Z,23.1
2018-03-04T03:45:18.369Z,23
2018-03-04T03:46:07.445Z,23.1
2018-03-04T03:46:56.922Z,23.2
2018-03-04T03:47:49.355Z,23.2
2018-03-04T03:48:38.194Z,23.3
2018-03-04T03:49:28.605Z,23.4
2018-03-04T03:50:18.885Z,23.6
2018-03-04T03:51:08.107Z,23.6
2018-03-04T03:51:58.449Z,23.8
2018-03-04T03:52:48.460Z,23.8
2018-03-04T03:53:38.359Z,23.5
2018-03-04T03:54:28.502Z,23.4
2018-03-04T03:55:19.092Z,23.4
2018-03-04T03:56:08.917Z,23.3
2018-03-04T03:57:00.394Z,23.3
2018-03-04T03:57:48.386Z,23.3
2018-03-04T03:58:39.038Z,23.3
2018-03-04T03:59:28.866Z,23.3
2018-03-04T04:00:20.126Z,23.3
2018-03-04T04:01:09.501Z,23.1
2018-03-04T04:01:59.295Z,23.1
2018-03-04T04:02:49.215Z,23.1
2018-03-04T04:03:39.846Z,23.1
2018-03-04T04:04:29.385Z,23
2018-03-04T04:05:19.195Z,23.1
2018-03-04T04:06:09.686Z,23
2018-03-04T04:07:00.893Z,23.1
2018-03-04T04:07:50.604Z,23
2018-03-04T04:08:37.670Z,22.9
2018-03-04T04:09:29.791Z,22.9
2018-03-04T04:10:18.955Z,23
2018-03-04T04:11:09.588Z,23.1
2018-03-04T04:11:59.730Z,23.2
2018-03-04T04:12:50.193Z,23.3
2018-03-04T04:13:40.674Z,23.4
2018-03-04T04:14:29.314Z,23.6
2018-03-04T04:15:20.043Z,23.6
2018-03-04T04:16:10.169Z,23.7
2018-03-04T04:17:00.080Z,23.7
2018-03-04T04:17:50.996Z,23.4
2018-03-04T04:18:39.641Z,23.4
2018-03-04T04:19:30.742Z,23.3
2018-03-04T04:20:19.839Z,23.3
2018-03-04T04:21:10.473Z,23.2
2018-03-04T04:22:00.557Z,23.2
2018-03-04T04:22:50.159Z,23.2
2018-03-04T04:23:41.443Z,23.2
2018-03-04T04:24:31.272Z,23.2
2018-03-04T04:25:35.645Z,23
2018-03-04T04:26:11.116Z,22.9
2018-03-04T04:27:01.581Z,22.9
2018-03-04T04:27:52.160Z,22.9
2018-03-04T04:28:41.672Z,22.9
2018-03-04T04:29:32.551Z,22.9
2018-03-04T04:30:22.373Z,22.9
2018-03-04T04:31:12.615Z,22.9
2018-03-04T04:32:02.203Z,22.9
2018-03-04T04:32:52.510Z,22.9
2018-03-04T04:33:42.026Z,22.9
2018-03-04T04:34:32.937Z,22.9
2018-03-04T04:35:22.437Z,23.1
2018-03-04T04:36:13.072Z,23.1
2018-03-04T04:37:02.508Z,23.3
2018-03-04T04:37:52.555Z,23.4
2018-03-04T04:38:43.177Z,23.5
2018-03-04T04:39:32.178Z,23.6
2018-03-04T04:40:21.442Z,23.7
2018-03-04T04:41:13.126Z,23.6
2018-03-04T04:42:03.159Z,23.3
2018-03-04T04:42:52.725Z,23.3
2018-03-04T04:43:41.276Z,23.2
2018-03-04T04:44:32.299Z,23.2
2018-03-04T04:45:22.604Z,23.1
2018-03-04T04:46:12.767Z,23.1
2018-03-04T04:47:00.883Z,23.1
2018-03-04T04:47:52.461Z,23.1
2018-03-04T04:48:42.140Z,23
2018-03-04T04:49:32.828Z,22.9
2018-03-04T04:50:22.136Z,22.9
2018-03-04T04:51:12.097Z,22.9
2018-03-04T04:52:02.779Z,22.8
2018-03-04T04:52:52.377Z,22.8
2018-03-04T04:53:42.073Z,22.9
2018-03-04T04:54:31.934Z,22.9
2018-03-04T04:55:22.406Z,22.9
2018-03-04T04:56:13.148Z,22.9
2018-03-04T04:57:02.717Z,23
2018-03-04T04:57:53.045Z,23.1
2018-03-04T04:58:42.656Z,23.1
2018-03-04T04:59:33.686Z,23.1
2018-03-04T05:00:23.279Z,23.1
2018-03-04T05:01:13.823Z,23.1
2018-03-04T05:02:02.891Z,23.2
2018-03-04T05:02:53.156Z,23.3
2018-03-04T05:03:39.584Z,23.4
2018-03-04T05:04:33.793Z,23.5
2018-03-04T05:05:24.096Z,23.6
2018-03-04T05:06:13.764Z,23.7
2018-03-04T05:07:03.331Z,23.8
2018-03-04T05:07:54.625Z,23.8
2018-03-04T05:08:44.468Z,23.4
2018-03-04T05:09:34.875Z,23.4
2018-03-04T05:10:24.654Z,23.3
2018-03-04T05:11:14.777Z,23.3
2018-03-04T05:12:04.364Z,23.3
2018-03-04T05:12:54.513Z,23.2
2018-03-04T05:13:45.055Z,23.2
2018-03-04T05:14:34.236Z,23.2
2018-03-04T05:15:23.965Z,23.2
2018-03-04T05:16:14.339Z,23.3
2018-03-04T05:17:04.508Z,23
2018-03-04T05:17:54.555Z,22.9
2018-03-04T05:18:44.293Z,22.9
2018-03-04T05:19:35.609Z,22.9
2018-03-04T05:20:25.107Z,22.9
2018-03-04T05:21:14.811Z,22.9
2018-03-04T05:22:04.660Z,22.9
2018-03-04T05:22:53.967Z,22.9
2018-03-04T05:23:44.585Z,22.9
2018-03-04T05:24:34.257Z,22.9
2018-03-04T05:25:25.188Z,23.1
2018-03-04T05:26:15.540Z,23.1
2018-03-04T05:27:05.335Z,23.1
2018-03-04T05:27:54.281Z,23.1
2018-03-04T05:28:45.138Z,23.1
2018-03-04T05:29:35.614Z,23.2
2018-03-04T05:30:24.971Z,23.3
2018-03-04T05:31:15.422Z,23.4
2018-03-04T05:32:04.813Z,23.5
2018-03-04T05:32:56.492Z,23.6
2018-03-04T05:33:45.173Z,23.7
2018-03-04T05:34:36.053Z,23.8
2018-03-04T05:35:26.078Z,23.8
2018-03-04T05:36:16.065Z,23.7
2018-03-04T05:37:06.541Z,23.4
2018-03-04T05:37:55.328Z,23.4
2018-03-04T05:38:46.365Z,23.3
2018-03-04T05:39:36.261Z,23.3
2018-03-04T05:40:26.336Z,23.3
2018-03-04T05:41:16.063Z,23.2
2018-03-04T05:42:07.178Z,23.2
2018-03-04T05:42:56.394Z,23.2
2018-03-04T05:43:47.256Z,23.2
2018-03-04T05:44:37.132Z,23.1
2018-03-04T05:45:26.678Z,22.9
2018-03-04T05:46:16.563Z,22.9
2018-03-04T05:47:06.576Z,22.9
2018-03-04T05:47:57.895Z,22.9
2018-03-04T05:48:47.568Z,22.9
2018-03-04T05:49:37.770Z,22.9
2018-03-04T05:50:25.933Z,22.9
2018-03-04T05:51:17.483Z,22.9
2018-03-04T05:52:06.614Z,23
2018-03-04T05:52:56.385Z,23.1
2018-03-04T05:53:46.800Z,23.1
2018-03-04T05:54:37.235Z,23.2
2018-03-04T05:55:26.995Z,23.1
2018-03-04T05:56:17.309Z,23.1
2018-03-04T05:57:06.648Z,23.2
2018-03-04T05:57:56.756Z,23.3
2018-03-04T05:58:46.750Z,23.3
2018-03-04T05:59:37.980Z,23.4
2018-03-04T06:00:27.966Z,23.6
2018-03-04T06:01:17.548Z,23.7
2018-03-04T06:02:08.465Z,23.8
2018-03-04T06:02:57.148Z,23.8
2018-03-04T06:03:47.026Z,23.9
2018-03-04T06:04:37.356Z,23.6
2018-03-04T06:05:28.443Z,23.4
2018-03-04T06:06:17.768Z,23.4
2018-03-04T06:07:07.630Z,23.3
2018-03-04T06:07:58.538Z,23.3
2018-03-04T06:08:48.294Z,23.2
2018-03-04T06:09:37.902Z,23.2
2018-03-04T06:10:27.230Z,23.2
2018-03-04T06:11:17.820Z,23.2
2018-03-04T06:12:09.219Z,23.3
2018-03-04T06:12:59.624Z,23.1
2018-03-04T06:13:49.322Z,22.9
2018-03-04T06:14:39.999Z,22.9
2018-03-04T06:15:29.709Z,22.9
2018-03-04T06:16:19.242Z,22.9
2018-03-04T06:17:09.667Z,22.9
2018-03-04T06:17:59.659Z,23
2018-03-04T06:18:50.229Z,22.9
2018-03-04T06:19:39.728Z,22.9
2018-03-04T06:20:30.672Z,23
2018-03-04T06:21:20.426Z,23.1
2018-03-04T06:22:09.727Z,23.2
2018-03-04T06:23:00.527Z,23.2
2018-03-04T06:23:49.424Z,23.2
2018-03-04T06:24:40.132Z,23.2
2018-03-04T06:25:30.461Z,23.3
2018-03-04T06:26:20.505Z,23.3
2018-03-04T06:27:10.591Z,23.4
2018-03-04T06:28:00.376Z,23.6
2018-03-04T06:28:50.361Z,23.6
2018-03-04T06:29:40.393Z,23.7
2018-03-04T06:30:30.464Z,23.8
2018-03-04T06:31:20.801Z,23.9
2018-03-04T06:32:09.417Z,23.8
2018-03-04T06:32:59.946Z,23.5
2018-03-04T06:33:50.173Z,23.4
2018-03-04T06:34:39.141Z,23.4
2018-03-04T06:35:29.310Z,23.3
2018-03-04T06:36:20.360Z,23.3
2018-03-04T06:37:10.710Z,23.3
2018-03-04T06:37:59.916Z,23.3
2018-03-04T06:38:49.969Z,23.3
2018-03-04T06:39:41.051Z,23.3
2018-03-04T06:40:30.625Z,23.2
2018-03-04T06:41:20.550Z,23
2018-03-04T06:42:10.448Z,23
2018-03-04T06:43:00.416Z,23
2018-03-04T06:43:49.671Z,22.9
2018-03-04T06:44:40.498Z,22.9
2018-03-04T06:45:30.685Z,23
2018-03-04T06:46:21.618Z,23
2018-03-04T06:47:10.992Z,23
2018-03-04T06:48:00.497Z,22.9
2018-03-04T06:48:51.206Z,22.9
2018-03-04T06:49:39.822Z,23
2018-03-04T06:50:31.591Z,23.1
2018-03-04T06:51:20.550Z,23.2
2018-03-04T06:52:10.756Z,23.3
2018-03-04T06:53:00.417Z,23.4
2018-03-04T06:53:50.309Z,23.5
2018-03-04T06:54:41.540Z,23.6
2018-03-04T06:55:31.599Z,23.7
2018-03-04T06:56:21.069Z,23.8
2018-03-04T06:57:11.811Z,23.8
2018-03-04T06:58:01.656Z,23.4
2018-03-04T06:58:51.549Z,23.4
2018-03-04T06:59:42.023Z,23.3
2018-03-04T07:00:31.904Z,23.3
2018-03-04T07:01:22.029Z,23.2
2018-03-04T07:02:11.879Z,23.2
2018-03-04T07:03:02.284Z,23.1
2018-03-04T07:03:52.420Z,23.1
2018-03-04T07:04:42.012Z,22.9
2018-03-04T07:05:32.253Z,22.9
2018-03-04T07:06:22.082Z,22.9
2018-03-04T07:07:12.028Z,22.9
2018-03-04T07:08:02.016Z,22.9
2018-03-04T07:08:52.034Z,22.9
2018-03-04T07:09:42.636Z,22.9
2018-03-04T07:10:32.858Z,22.9
2018-03-04T07:11:22.794Z,22.9
2018-03-04T07:12:11.971Z,22.9
2018-03-04T07:13:03.171Z,22.9
2018-03-04T07:13:53.089Z,23
2018-03-04T07:14:41.644Z,23.1
2018-03-04T07:15:33.703Z,23.2
2018-03-04T07:16:23.865Z,23.3
2018-03-04T07:17:12.885Z,23.4
2018-03-04T07:18:03.001Z,23.5
2018-03-04T07:18:51.919Z,23.6
2018-03-04T07:19:43.157Z,23.6
2018-03-04T07:20:32.744Z,23.8
2018-03-04T07:21:22.318Z,23.8
2018-03-04T07:22:14.120Z,23.8
2018-03-04T07:23:03.022Z,23.7
2018-03-04T07:23:53.779Z,23.3
2018-03-04T07:24:43.545Z,23.1
2018-03-04T07:25:33.209Z,23
2018-03-04T07:26:23.384Z,22.9
2018-03-04T07:27:13.429Z,22.9
2018-03-04T07:28:04.496Z,22.9
2018-03-04T07:28:53.151Z,22.9
2018-03-04T07:29:43.992Z,22.9
2018-03-04T07:30:34.362Z,22.8
2018-03-04T07:31:23.530Z,22.8
2018-03-04T07:32:14.520Z,22.9
2018-03-04T07:33:03.722Z,22.9
2018-03-04T07:33:53.998Z,23
2018-03-04T07:34:43.711Z,23.1
2018-03-04T07:35:35.010Z,23.3
2018-03-04T07:36:24.068Z,23.3
2018-03-04T07:37:13.520Z,23.4
2018-03-04T07:38:03.572Z,23.4
2018-03-04T07:38:54.981Z,23.5
2018-03-04T07:39:45.401Z,23.6
2018-03-04T07:40:33.949Z,23.6
2018-03-04T07:41:24.586Z,23.6
2018-03-04T07:42:13.979Z,23.4
2018-03-04T07:43:04.501Z,23.2
2018-03-04T07:43:54.269Z,22.9
2018-03-04T07:44:44.845Z,22.9
2018-03-04T07:45:34.316Z,22.9
2018-03-04T07:46:25.459Z,22.9
2018-03-04T07:47:14.706Z,22.8
2018-03-04T07:48:04.331Z,22.8
2018-03-04T07:48:55.335Z,22.8
2018-03-04T07:49:45.283Z,22.7
2018-03-04T07:50:35.354Z,22.7
2018-03-04T07:51:24.987Z,22.8
2018-03-04T07:52:15.172Z,22.9
2018-03-04T07:53:04.942Z,22.9
2018-03-04T07:53:56.763Z,23.1
2018-03-04T07:54:46.171Z,23.2
2018-03-04T07:55:35.685Z,23.3
2018-03-04T07:56:26.256Z,23.4
2018-03-04T07:57:15.252Z,23.5
2018-03-04T07:58:06.068Z,23.6
2018-03-04T07:58:56.200Z,23.6
2018-03-04T07:59:46.353Z,23.6
2018-03-04T08:00:36.647Z,23.7
2018-03-04T08:01:24.518Z,23.3
2018-03-04T08:02:15.743Z,23.1
2018-03-04T08:03:04.696Z,22.9
2018-03-04T08:03:56.385Z,22.9
2018-03-04T08:04:46.049Z,22.9
2018-03-04T08:05:35.841Z,22.9
2018-03-04T08:06:26.041Z,22.8
2018-03-04T08:07:16.007Z,22.8
2018-03-04T08:08:05.583Z,22.7
2018-03-04T08:08:56.933Z,22.7
2018-03-04T08:09:45.646Z,22.8
2018-03-04T08:10:35.874Z,22.9
2018-03-04T08:11:27.353Z,22.9
2018-03-04T08:12:16.960Z,23.1
2018-03-04T08:13:07.211Z,23.2
2018-03-04T08:13:57.198Z,23.3
2018-03-04T08:14:47.456Z,23.4
2018-03-04T08:15:36.637Z,23.5
2018-03-04T08:16:27.251Z,23.6
2018-03-04T08:17:17.490Z,23.6
2018-03-04T08:18:06.297Z,23.7
2018-03-04T08:18:57.321Z,23.7
2018-03-04T08:19:47.415Z,23.6
2018-03-04T08:20:36.667Z,23.2
2018-03-04T08:21:27.623Z,23
2018-03-04T08:22:16.803Z,22.9
2018-03-04T08:23:07.891Z,22.8
2018-03-04T08:23:57.087Z,22.8
2018-03-04T08:24:48.022Z,22.8
2018-03-04T08:25:37.974Z,22.8
2018-03-04T08:26:28.346Z,22.8
2018-03-04T08:27:19.018Z,22.7
2018-03-04T08:28:07.872Z,22.8
2018-03-04T08:28:58.179Z,22.8
2018-03-04T08:29:46.806Z,22.9
2018-03-04T08:30:38.186Z,23.1
2018-03-04T08:31:28.214Z,23.2
2018-03-04T08:32:18.045Z,23.3
2018-03-04T08:33:07.113Z,23.4
2018-03-04T08:33:58.849Z,23.5
2018-03-04T08:34:48.487Z,23.6
2018-03-04T08:35:38.100Z,23.6
2018-03-04T08:36:28.379Z,23.8
2018-03-04T08:37:18.954Z,23.8
2018-03-04T08:38:09.538Z,23.8
2018-03-04T08:38:58.445Z,23.6
2018-03-04T08:39:48.406Z,23.2
2018-03-04T08:40:39.320Z,22.9
2018-03-04T08:41:28.614Z,22.9
2018-03-04T08:42:19.343Z,22.8
2018-03-04T08:43:08.300Z,22.8
2018-03-04T08:43:58.912Z,22.8
2018-03-04T08:44:49.216Z,22.8
2018-03-04T08:45:39.812Z,22.8
2018-03-04T08:46:28.896Z,22.7
2018-03-04T08:47:18.640Z,22.8
2018-03-04T08:48:09.886Z,22.8
2018-03-04T08:48:58.763Z,22.9
2018-03-04T08:49:49.208Z,23
2018-03-04T08:50:39.705Z,23.2
2018-03-04T08:51:28.915Z,23.3
2018-03-04T08:52:18.100Z,23.4
2018-03-04T08:53:08.324Z,23.5
2018-03-04T08:53:59.578Z,23.6
2018-03-04T08:54:50.020Z,23.6
2018-03-04T08:55:39.589Z,23.8
2018-03-04T08:56:30.698Z,23.8
2018-03-04T08:57:20.867Z,23.8
2018-03-04T08:58:09.865Z,23.7
2018-03-04T08:58:59.997Z,23.2
2018-03-04T08:59:49.128Z,22.9
2018-03-04T09:00:39.568Z,22.8
2018-03-04T09:01:29.902Z,22.8
2018-03-04T09:02:19.942Z,22.7
2018-03-04T09:03:10.435Z,22.7
2018-03-04T09:04:01.283Z,22.7
2018-03-04T09:04:51.165Z,22.6
2018-03-04T09:05:41.537Z,22.6
2018-03-04T09:06:29.668Z,22.6
2018-03-04T09:07:19.692Z,22.6
2018-03-04T09:08:10.383Z,22.8
2018-03-04T09:09:01.317Z,22.9
2018-03-04T09:09:50.746Z,23
2018-03-04T09:10:40.284Z,23.1
2018-03-04T09:11:30.687Z,23.3
2018-03-04T09:12:21.395Z,23.3
2018-03-04T09:13:10.757Z,23.4
2018-03-04T09:14:01.379Z,23.5
2018-03-04T09:14:52.270Z,23.6
2018-03-04T09:15:41.127Z,23.6
2018-03-04T09:16:31.250Z,23.6
2018-03-04T09:17:21.429Z,23.6
2018-03-04T09:18:11.256Z,23.7
2018-03-04T09:19:01.324Z,23.8
2018-03-04T09:19:51.742Z,23.8
2018-03-04T09:20:41.266Z,23.8
2018-03-04T09:21:32.636Z,23.8
2018-03-04T09:22:21.974Z,23.8
2018-03-04T09:23:11.571Z,23.8
2018-03-04T09:24:01.672Z,23.8
2018-03-04T09:24:52.104Z,23.8
2018-03-04T09:25:41.905Z,23.8
2018-03-04T09:26:32.475Z,23.8
2018-03-04T09:27:21.619Z,23.7
2018-03-04T09:28:11.506Z,23.7
2018-03-04T09:29:01.680Z,23.4
2018-03-04T09:29:51.565Z,23.3
2018-03-04T09:30:42.809Z,23.2
2018-03-04T09:31:32.421Z,23.1
2018-03-04T09:32:22.900Z,23.1
2018-03-04T09:33:11.902Z,23
2018-03-04T09:34:02.349Z,22.9
2018-03-04T09:34:52.629Z,22.9
2018-03-04T09:35:42.916Z,22.9
2018-03-04T09:36:33.049Z,22.9
2018-03-04T09:37:23.378Z,22.9
2018-03-04T09:38:13.680Z,22.8
2018-03-04T09:39:02.731Z,22.8
2018-03-04T09:39:52.931Z,22.8
2018-03-04T09:40:42.697Z,22.9
2018-03-04T09:41:33.275Z,24.9
2018-03-04T09:42:22.787Z,23.5
2018-03-04T09:43:13.419Z,23.1
2018-03-04T09:44:03.368Z,22.9
2018-03-04T09:44:52.868Z,22.8
2018-03-04T09:45:44.463Z,22.7
2018-03-04T09:46:33.502Z,22.6
2018-03-04T09:47:23.405Z,22.5
2018-03-04T09:48:13.620Z,22.4
2018-03-04T09:49:02.822Z,22.4
2018-03-04T09:49:54.547Z,22.4
2018-03-04T09:50:44.619Z,22.6
2018-03-04T09:51:34.467Z,22.8
2018-03-04T09:52:23.853Z,22.9
2018-03-04T09:53:14.149Z,23
2018-03-04T09:54:03.604Z,25.7
2018-03-04T09:54:54.136Z,28.5
2018-03-04T09:55:43.680Z,25.5
2018-03-04T09:56:34.071Z,24.6
2018-03-04T09:57:24.847Z,23.9
2018-03-04T09:58:14.002Z,23.3
2018-03-04T09:59:04.152Z,22.9
2018-03-04T09:59:54.122Z,23.6
2018-03-04T10:00:43.262Z,25.9
2018-03-04T10:01:34.172Z,27.6
2018-03-04T10:02:24.793Z,29
2018-03-04T10:03:13.651Z,28.3
2018-03-04T10:04:04.023Z,31.4
2018-03-04T10:04:55.012Z,33.4
2018-03-04T10:05:45.399Z,32.1
2018-03-04T10:06:34.582Z,29.8
2018-03-04T10:07:26.135Z,28.3
2018-03-04T10:08:15.216Z,27.1
2018-03-04T10:09:04.253Z,26.3
2018-03-04T10:09:54.272Z,25.5
2018-03-04T10:10:45.628Z,24.9
2018-03-04T10:11:35.447Z,25.4
2018-03-04T10:12:25.665Z,26.7
2018-03-04T10:13:14.803Z,28.1
2018-03-04T10:14:05.478Z,30
2018-03-04T10:14:56.074Z,31.6
2018-03-04T10:15:44.097Z,32.3
2018-03-04T10:16:35.810Z,32.1
2018-03-04T10:17:24.915Z,31.9
2018-03-04T10:18:15.001Z,32.3
2018-03-04T10:19:05.596Z,33.2
2018-03-04T10:19:55.118Z,34.3
2018-03-04T10:20:45.438Z,35.5
2018-03-04T10:21:35.828Z,36.5
2018-03-04T10:22:25.248Z,37.4
2018-03-04T10:23:16.148Z,38.3
2018-03-04T10:24:04.791Z,39
2018-03-04T10:24:56.040Z,39.6
2018-03-04T10:25:45.250Z,40.2
2018-03-04T10:26:37.118Z,40.6
2018-03-04T10:27:26.438Z,41
2018-03-04T10:28:16.275Z,41.3
2018-03-04T10:29:06.502Z,41.6
2018-03-04T10:29:54.568Z,41.9
2018-03-04T10:30:46.789Z,42.1
2018-03-04T10:31:35.845Z,42.3
2018-03-04T10:32:26.033Z,42.4
2018-03-04T10:33:16.544Z,42.6
2018-03-04T10:34:07.880Z,42.7
2018-03-04T10:34:57.902Z,42.8
2018-03-04T10:35:48.510Z,42.8
2018-03-04T10:36:37.966Z,33.9
2018-03-04T10:37:28.387Z,28.8
2018-03-04T10:38:17.823Z,26.3
2018-03-04T10:39:07.625Z,24.8
2018-03-04T10:39:58.805Z,23.8
2018-03-04T10:40:48.279Z,23.1
2018-03-04T10:41:38.907Z,22.7
2018-03-04T10:42:28.629Z,22.5
2018-03-04T10:43:19.031Z,23.2
2018-03-04T10:44:09.137Z,22.6
2018-03-04T10:44:58.610Z,22.4
2018-03-04T10:45:48.909Z,22.4
2018-03-04T10:46:39.264Z,22.4
2018-03-04T10:47:29.339Z,22.4
2018-03-04T10:48:19.421Z,22.5
2018-03-04T10:49:07.010Z,22.6
2018-03-04T10:49:57.361Z,22.8
2018-03-04T10:50:48.077Z,22.9
2018-03-04T10:51:38.511Z,23.1
2018-03-04T10:52:28.805Z,23.3
2018-03-04T10:53:18.240Z,23.4
2018-03-04T10:54:07.316Z,23.5
2018-03-04T10:54:58.886Z,23.6
2018-03-04T10:55:47.769Z,23.8
2018-03-04T10:56:36.879Z,23.9
2018-03-04T10:57:26.330Z,23.9
2018-03-04T10:58:18.973Z,24.1
2018-03-04T10:59:08.533Z,24.1
2018-03-04T10:59:58.646Z,24.3
2018-03-04T11:00:49.223Z,24.4
2018-03-04T11:01:39.789Z,24.4
2018-03-04T11:02:28.089Z,24.5
2018-03-04T11:03:18.238Z,24.6
2018-03-04T11:04:08.919Z,24.6
2018-03-04T11:04:57.975Z,24.7
2018-03-04T11:05:47.973Z,24.8
2018-03-04T11:06:39.432Z,24.8
2018-03-04T11:07:28.498Z,24.9
2018-03-04T11:08:18.927Z,24.9